Time;durP1;ratioP1;P1;durP2;ratioP2;P2;SDS_P1;SDS_P2;PMS_P1;PMS_P2;Temp;Humidity;BMP_temperature;BMP_pressure;BME280_temperature;BME280_humidity;BME280_pressure;Samples;Min_cycle;Max_cycle;Signal;HPM_P1;HPM_P2
2021/04/06 00:00:05;;;;;;;0.98;0.50;;;20.80;37.70;;;;;;5095324;28;20032;-52
2021/04/06 00:02:32;;;;;;;1.70;0.75;;;20.80;37.60;;;;;;5094403;28;20031;-51
2021/04/06 00:05:03;;;;;;;1.40;0.65;;;20.80;37.60;;;;;;5095062;28;20031;-55
2021/04/06 00:07:30;;;;;;;1.88;0.70;;;20.70;37.60;;;;;;5094098;28;20031;-56
2021/04/06 00:10:02;;;;;;;1.33;0.60;;;20.80;37.60;;;;;;5095049;28;20092;-57
2021/04/06 00:12:29;;;;;;;1.13;0.50;;;20.80;37.60;;;;;;5094039;28;20028;-52
2021/04/06 00:14:57;;;;;;;2.13;0.70;;;20.80;37.60;;;;;;5095040;28;20028;-52
2021/04/06 00:17:24;;;;;;;1.45;0.50;;;20.80;37.50;;;;;;5093893;28;20064;-55
2021/04/06 00:19:54;;;;;;;0.93;0.40;;;20.80;37.60;;;;;;5094691;28;20117;-52
2021/04/06 00:22:21;;;;;;;1.75;0.70;;;20.80;37.60;;;;;;5089925;28;20027;-54
2021/04/06 00:24:52;;;;;;;1.10;0.63;;;20.80;37.60;;;;;;5076832;28;20100;-53
2021/04/06 00:27:20;;;;;;;2.47;0.60;;;20.80;37.60;;;;;;5073687;28;20029;-51
2021/04/06 00:29:52;;;;;;;1.48;0.68;;;20.80;37.60;;;;;;5074198;28;20381;-54
2021/04/06 00:32:20;;;;;;;1.30;0.65;;;20.80;37.60;;;;;;5073684;28;20020;-49
2021/04/06 00:34:46;;;;;;;1.10;0.57;;;20.80;37.50;;;;;;5080493;28;20045;-50
2021/04/06 00:37:16;;;;;;;2.55;0.88;;;20.80;37.50;;;;;;5073204;28;20377;-52
2021/04/06 00:39:43;;;;;;;2.38;0.73;;;20.80;37.50;;;;;;5074153;28;20107;-50
2021/04/06 00:42:15;;;;;;;1.25;0.57;;;20.80;37.50;;;;;;5072633;28;20029;-55
2021/04/06 00:44:44;;;;;;;3.80;0.65;;;20.80;37.50;;;;;;5074299;28;20024;-52
2021/04/06 00:47:14;;;;;;;1.10;0.70;;;20.70;37.50;;;;;;5088653;28;20086;-55
2021/04/06 00:49:42;;;;;;;1.52;0.65;;;20.80;37.50;;;;;;5094293;28;20020;-53
2021/04/06 00:52:08;;;;;;;1.10;0.90;;;20.80;37.60;;;;;;5093716;28;20024;-57
2021/04/06 00:54:37;;;;;;;1.05;0.60;;;20.80;37.50;;;;;;5093716;28;20111;-54
2021/04/06 00:57:06;;;;;;;0.90;0.63;;;20.80;37.50;;;;;;5093704;28;20051;-54
2021/04/06 00:59:33;;;;;;;1.08;0.70;;;20.80;37.50;;;;;;5093658;28;20020;-51
2021/04/06 01:02:07;;;;;;;1.05;0.70;;;20.80;37.50;;;;;;5094658;28;20050;-55
2021/04/06 01:04:38;;;;;;;1.30;0.70;;;20.80;37.50;;;;;;5093402;28;20024;-53
2021/04/06 01:07:14;;;;;;;1.73;0.60;;;20.80;37.50;;;;;;5093724;28;20492;-55
2021/04/06 01:09:41;;;;;;;1.27;0.55;;;20.80;37.50;;;;;;5093918;28;20381;-55
2021/04/06 01:12:09;;;;;;;0.98;0.65;;;20.80;37.40;;;;;;5094048;28;20032;-56
2021/04/06 01:14:37;;;;;;;4.20;0.82;;;20.80;37.50;;;;;;5093424;28;20024;-54
2021/04/06 01:17:04;;;;;;;0.70;0.50;;;20.80;37.40;;;;;;5093502;28;20123;-52
2021/04/06 01:19:31;;;;;;;1.83;0.60;;;20.80;37.30;;;;;;5092953;28;20063;-54
2021/04/06 01:21:58;;;;;;;2.05;0.70;;;20.80;37.40;;;;;;5093489;28;20035;-54
2021/04/06 01:24:33;;;;;;;1.83;1.05;;;20.80;37.50;;;;;;5092799;28;20046;-54
2021/04/06 01:27:01;;;;;;;1.88;0.70;;;20.80;37.40;;;;;;5093271;28;20047;-53
2021/04/06 01:29:27;;;;;;;1.10;0.50;;;20.80;37.40;;;;;;5092734;28;20063;-52
2021/04/06 01:31:53;;;;;;;1.60;0.80;;;20.80;37.40;;;;;;5093384;28;20103;-51
2021/04/06 01:34:20;;;;;;;1.35;0.90;;;20.80;37.40;;;;;;5092664;28;20107;-54
2021/04/06 01:36:52;;;;;;;1.70;0.85;;;20.80;37.30;;;;;;5093141;28;20507;-51
2021/04/06 01:39:19;;;;;;;;;;;20.80;37.40;;;;;;5092988;28;20057;-54
2021/04/06 01:41:49;;;;;;;1.98;0.68;;;20.80;37.40;;;;;;5092139;28;20352;-54
2021/04/06 01:44:16;;;;;;;1.90;0.80;;;20.80;37.40;;;;;;5092501;28;20110;-50
2021/04/06 01:46:46;;;;;;;1.38;0.63;;;20.80;37.40;;;;;;5081928;28;20089;-53
2021/04/06 01:49:16;;;;;;;2.65;0.82;;;20.80;37.40;;;;;;5072481;28;20033;-56
2021/04/06 01:51:42;;;;;;;1.27;0.57;;;20.80;37.50;;;;;;5072721;28;20381;-52
2021/04/06 01:54:10;;;;;;;1.15;0.50;;;20.80;37.40;;;;;;5072607;28;20115;-54
2021/04/06 01:56:57;;;;;;;0.88;0.60;;;20.80;37.50;;;;;;5071539;28;20477;-50
2021/04/06 01:59:32;;;;;;;1.92;0.60;;;20.80;37.50;;;;;;5071923;28;20049;-55
2021/04/06 02:02:00;;;;;;;2.95;0.70;;;20.80;37.50;;;;;;5072652;28;20043;-55
2021/04/06 02:04:27;;;;;;;2.05;0.70;;;20.80;37.40;;;;;;5071786;28;20025;-55
2021/04/06 02:06:54;;;;;;;3.05;0.88;;;20.80;37.40;;;;;;5072469;28;20032;-49
2021/04/06 02:09:20;;;;;;;1.25;0.52;;;20.80;37.40;;;;;;5071598;28;20457;-52
2021/04/06 02:11:47;;;;;;;1.20;0.65;;;20.80;37.40;;;;;;5072578;28;20020;-52
2021/04/06 02:14:15;;;;;;;0.65;0.45;;;20.80;37.30;;;;;;5071879;28;20028;-56
2021/04/06 02:16:46;;;;;;;1.65;0.60;;;20.80;37.30;;;;;;5090502;28;20028;-50
2021/04/06 02:19:36;;;;;;;3.85;1.70;;;20.80;37.30;;;;;;5092148;28;20032;-54
2021/04/06 02:22:10;;;;;;;2.45;0.63;;;20.80;37.30;;;;;;5092532;28;20028;-55
2021/04/06 02:24:45;;;;;;;1.85;0.60;;;20.80;37.30;;;;;;5091488;28;20028;-52
2021/04/06 02:27:19;;;;;;;1.27;0.60;;;20.80;37.30;;;;;;5092139;28;20040;-56
2021/04/06 02:29:46;;;;;;;0.68;0.60;;;20.80;37.20;;;;;;5092408;28;20040;-53
2021/04/06 02:32:14;;;;;;;2.22;1.45;;;20.80;37.30;;;;;;5092008;28;20388;-55
2021/04/06 02:34:52;;;;;;;1.33;0.40;;;20.80;37.20;;;;;;5092295;28;20400;-52
2021/04/06 02:37:23;;;;;;;2.38;0.60;;;20.80;37.20;;;;;;5090391;28;20035;-53
2021/04/06 02:39:50;;;;;;;2.53;0.70;;;20.80;37.20;;;;;;5091883;28;20082;-55
2021/04/06 02:42:29;;;;;;;1.63;0.80;;;20.80;37.20;;;;;;5091333;28;20377;-54
2021/04/06 02:45:07;;;;;;;1.05;0.60;;;20.80;37.90;;;;;;5092197;28;20024;-54
2021/04/06 02:47:53;;;;;;;1.08;0.60;;;20.80;37.20;;;;;;5091326;28;20028;-56
2021/04/06 02:50:26;;;;;;;2.05;0.52;;;20.80;37.20;;;;;;5091491;28;20035;-52
2021/04/06 02:52:53;;;;;;;1.50;0.68;;;20.80;37.20;;;;;;5091865;28;20024;-55
2021/04/06 02:55:20;;;;;;;2.55;0.95;;;20.80;37.20;;;;;;5091418;28;20419;-54
2021/04/06 02:57:51;;;;;;;0.88;0.40;;;20.80;37.30;;;;;;5091798;28;20062;-53
2021/04/06 03:00:37;;;;;;;2.33;0.70;;;20.80;37.20;;;;;;5091395;28;20046;-53
2021/04/06 03:03:04;;;;;;;0.90;0.60;;;20.80;37.20;;;;;;5091623;28;20113;-53
2021/04/06 03:05:32;;;;;;;1.30;0.55;;;20.80;37.20;;;;;;5091182;28;20025;-52
2021/04/06 03:07:59;;;;;;;1.02;0.50;;;20.80;37.10;;;;;;5091917;28;20056;-53
2021/04/06 03:10:25;;;;;;;1.33;0.60;;;20.80;37.20;;;;;;5091044;28;20035;-55
2021/04/06 03:12:51;;;;;;;1.33;0.50;;;20.70;37.20;;;;;;5091985;28;20033;-50
2021/04/06 03:15:25;;;;;;;1.67;0.60;;;20.80;37.20;;;;;;5091089;28;20032;-55
2021/04/06 03:17:54;;;;;;;1.08;0.50;;;20.80;37.10;;;;;;5090736;28;20036;-52
2021/04/06 03:20:20;;;;;;;1.00;0.50;;;20.80;37.20;;;;;;5090959;28;20028;-51
2021/04/06 03:22:50;;;;;;;0.88;0.50;;;20.80;37.10;;;;;;5091917;28;20093;-54
2021/04/06 03:25:17;;;;;;;1.23;0.70;;;20.80;37.10;;;;;;5090916;28;20024;-56
2021/04/06 03:27:48;;;;;;;1.13;0.60;;;20.80;37.10;;;;;;5091775;28;20403;-49
2021/04/06 03:30:31;;;;;;;1.55;0.55;;;20.80;37.10;;;;;;5091355;28;20393;-56
2021/04/06 03:33:01;;;;;;;1.05;0.50;;;20.80;37.20;;;;;;5091897;28;20377;-55
2021/04/06 03:35:28;;;;;;;2.05;0.80;;;20.80;37.10;;;;;;5090982;28;20039;-52
2021/04/06 03:37:54;;;;;;;1.45;0.60;;;20.80;37.10;;;;;;5091480;28;20473;-52
2021/04/06 03:40:20;;;;;;;1.00;0.50;;;20.70;37.10;;;;;;5090611;28;20035;-53
2021/04/06 03:42:46;;;;;;;1.15;0.50;;;20.80;37.10;;;;;;5091663;28;20080;-50
2021/04/06 03:45:12;;;;;;;1.30;0.77;;;20.80;37.00;;;;;;5091875;28;20032;-52
2021/04/06 03:47:57;;;;;;;0.90;0.40;;;20.70;37.00;;;;;;5091011;28;20028;-51
2021/04/06 03:50:39;;;;;;;1.55;0.57;;;20.80;37.10;;;;;;5090631;28;20032;-52
2021/04/06 03:53:10;;;;;;;3.05;0.50;;;20.80;37.10;;;;;;5091763;28;20029;-52
2021/04/06 03:55:39;;;;;;;2.75;0.70;;;20.80;37.80;;;;;;5090479;28;20024;-49
2021/04/06 03:58:16;;;;;;;1.20;0.50;;;20.80;37.10;;;;;;5091269;28;20059;-45
2021/04/06 04:00:41;;;;;;;2.28;1.15;;;20.80;37.10;;;;;;5091382;28;20484;-55
2021/04/06 04:03:07;;;;;;;1.02;0.57;;;20.80;37.00;;;;;;5091553;28;20032;-50
2021/04/06 04:05:33;;;;;;;1.75;0.82;;;20.70;37.00;;;;;;5093322;28;20020;-51
2021/04/06 04:08:00;;;;;;;1.45;0.60;;;20.80;37.00;;;;;;5095284;28;20029;-54
2021/04/06 04:10:26;;;;;;;2.45;0.55;;;20.70;37.00;;;;;;5094054;28;20032;-54
2021/04/06 04:12:52;;;;;;;2.05;0.75;;;20.80;37.10;;;;;;5094975;28;20020;-51
2021/04/06 04:15:18;;;;;;;1.05;0.60;;;20.70;37.00;;;;;;5094286;28;20453;-56
2021/04/06 04:17:51;;;;;;;1.52;0.50;;;20.80;37.10;;;;;;5094854;28;20038;-53
2021/04/06 04:20:22;;;;;;;1.20;0.65;;;20.80;37.10;;;;;;5094313;28;20032;-55
2021/04/06 04:22:49;;;;;;;1.77;0.60;;;20.80;37.00;;;;;;5095062;28;20469;-53
2021/04/06 04:25:16;;;;;;;1.98;0.77;;;20.80;37.10;;;;;;5094100;28;20028;-55
2021/04/06 04:27:43;;;;;;;2.20;0.57;;;20.80;37.00;;;;;;5094540;28;20047;-51
2021/04/06 04:30:10;;;;;;;1.90;0.75;;;20.80;37.00;;;;;;5093582;28;20411;-54
2021/04/06 04:32:36;;;;;;;1.27;0.60;;;20.70;37.00;;;;;;5093921;28;20035;-51
2021/04/06 04:35:02;;;;;;;1.23;0.70;;;20.70;37.00;;;;;;5094600;28;20027;-54
2021/04/06 04:37:28;;;;;;;1.17;0.50;;;20.70;36.90;;;;;;5093718;28;20107;-53
2021/04/06 04:39:53;;;;;;;2.15;0.70;;;20.70;37.00;;;;;;5094577;28;20513;-49
2021/04/06 04:42:19;;;;;;;1.88;0.50;;;20.70;36.90;;;;;;5093650;28;20435;-52
2021/04/06 04:44:45;;;;;;;1.52;0.68;;;20.70;37.00;;;;;;5094329;28;20020;-49
2021/04/06 04:47:11;;;;;;;1.38;0.60;;;20.70;36.90;;;;;;5079256;28;20508;-51
2021/04/06 04:49:36;;;;;;;1.42;0.65;;;20.70;36.90;;;;;;5073134;28;20467;-48
2021/04/06 04:52:02;;;;;;;2.33;0.60;;;20.80;36.90;;;;;;5073915;28;20112;-51
2021/04/06 04:54:28;;;;;;;1.60;0.40;;;20.70;36.80;;;;;;5073263;28;20021;-52
2021/04/06 04:56:54;;;;;;;1.83;0.50;;;20.70;36.90;;;;;;5073121;28;20477;-50
2021/04/06 04:59:20;;;;;;;1.40;0.57;;;20.70;36.90;;;;;;5073258;28;20036;-57
2021/04/06 05:01:46;;;;;;;1.85;0.60;;;20.70;36.90;;;;;;5073794;28;20025;-52
2021/04/06 05:04:11;;;;;;;3.28;0.55;;;20.80;36.90;;;;;;5073795;28;20052;-53
2021/04/06 05:06:37;;;;;;;1.33;0.68;;;20.80;36.90;;;;;;5072988;28;20195;-49
2021/04/06 05:09:04;;;;;;;1.88;0.98;;;20.80;36.90;;;;;;5073416;28;20163;-48
2021/04/06 05:11:30;;;;;;;2.10;0.95;;;20.80;36.90;;;;;;5072776;28;20099;-52
2021/04/06 05:13:56;;;;;;;2.08;0.68;;;20.80;37.00;;;;;;5073590;28;20107;-55
2021/04/06 05:16:21;;;;;;;2.60;0.70;;;20.80;37.10;;;;;;5072393;28;20036;-51
2021/04/06 05:18:47;;;;;;;2.97;0.68;;;20.80;37.10;;;;;;5073537;28;20047;-51
2021/04/06 05:21:13;;;;;;;2.67;0.52;;;20.80;37.00;;;;;;5073425;28;20374;-53
2021/04/06 05:23:38;;;;;;;2.40;1.23;;;20.80;37.00;;;;;;5072559;28;20101;-53
2021/04/06 05:26:04;;;;;;;2.42;0.70;;;20.80;37.00;;;;;;5072953;28;20028;-53
2021/04/06 05:28:30;;;;;;;5.50;1.10;;;20.80;37.10;;;;;;5077074;28;20128;-49
2021/04/06 05:30:56;;;;;;;4.03;0.80;;;20.80;37.30;;;;;;5085126;28;20020;-53
2021/04/06 05:33:22;;;;;;;8.32;0.77;;;20.80;37.50;;;;;;5092741;28;20111;-54
2021/04/06 05:35:50;;;;;;;4.78;0.82;;;20.90;37.70;;;;;;5093063;28;20372;-51
2021/04/06 05:38:15;;;;;;;2.75;1.00;;;20.90;37.70;;;;;;5093112;28;20461;-54
2021/04/06 05:40:41;;;;;;;6.22;1.10;;;20.80;37.60;;;;;;5092517;28;20040;-54
2021/04/06 05:43:09;;;;;;;8.25;1.45;;;20.90;38.40;;;;;;5086217;28;20089;-51
2021/04/06 05:45:35;;;;;;;4.13;0.88;;;20.90;40.30;;;;;;5088660;28;20122;-49
2021/04/06 05:48:03;;;;;;;3.88;0.90;;;20.90;41.20;;;;;;5071653;28;20435;-53
2021/04/06 05:50:29;;;;;;;5.45;0.95;;;20.80;41.10;;;;;;5070840;28;20442;-52
2021/04/06 05:52:55;;;;;;;3.90;0.85;;;20.80;41.20;;;;;;5078649;28;20059;-55
2021/04/06 05:55:21;;;;;;;5.90;0.98;;;20.90;41.40;;;;;;5092367;28;20046;-55
2021/04/06 05:57:47;;;;;;;4.75;1.02;;;20.80;41.10;;;;;;5092144;28;20044;-53
2021/04/06 06:00:13;;;;;;;8.52;1.65;;;20.80;41.00;;;;;;5092633;28;20078;-53
2021/04/06 06:02:39;;;;;;;5.82;1.35;;;20.80;40.90;;;;;;5092105;28;20103;-50
2021/04/06 06:05:06;;;;;;;4.15;0.80;;;20.80;41.10;;;;;;5082595;28;20099;-50
2021/04/06 06:07:33;;;;;;;6.35;0.90;;;20.80;40.90;;;;;;5091610;28;20384;-52
2021/04/06 06:10:28;;;;;;;7.20;1.35;;;20.90;40.90;;;;;;5090959;28;20035;-53
2021/04/06 06:13:12;;;;;;;5.60;0.98;;;20.90;41.10;;;;;;5088432;28;20111;-54
2021/04/06 06:15:38;;;;;;;10.75;1.42;;;20.90;40.90;;;;;;5082784;28;20185;-51
2021/04/06 06:18:05;;;;;;;3.63;1.23;;;20.90;40.90;;;;;;5091235;28;20024;-55
2021/04/06 06:20:32;;;;;;;4.68;1.10;;;20.90;40.80;;;;;;5090398;28;20038;-56
2021/04/06 06:23:21;;;;;;;4.57;1.08;;;20.80;40.70;;;;;;5091987;28;20030;-49
2021/04/06 06:26:04;;;;;;;3.80;0.93;;;20.90;40.70;;;;;;5091709;28;20381;-52
2021/04/06 06:28:30;;;;;;;2.78;0.90;;;20.80;40.50;;;;;;5082036;28;20028;-52
2021/04/06 06:30:57;;;;;;;6.75;0.75;;;20.80;40.50;;;;;;5072283;28;20028;-50
2021/04/06 06:33:29;;;;;;;4.72;0.98;;;20.80;40.40;;;;;;5079475;28;20051;-51
2021/04/06 06:36:11;;;;;;;2.08;0.63;;;20.80;40.30;;;;;;5083114;28;20103;-53
2021/04/06 06:38:39;;;;;;;2.05;1.00;;;20.80;40.20;;;;;;5092593;28;20082;-53
2021/04/06 06:41:19;;;;;;;2.78;1.08;;;20.80;40.20;;;;;;5092231;28;20034;-54
2021/04/06 06:43:51;;;;;;;4.53;0.93;;;20.80;40.10;;;;;;5077503;28;20024;-49
2021/04/06 06:46:21;;;;;;;3.72;0.70;;;20.80;40.00;;;;;;5079851;28;20054;-54
2021/04/06 06:48:54;;;;;;;4.15;0.73;;;20.80;40.00;;;;;;5073529;28;20036;-51
2021/04/06 06:51:20;;;;;;;3.30;0.98;;;20.80;39.90;;;;;;5075070;28;20033;-55
2021/04/06 06:53:45;;;;;;;2.92;1.38;;;20.80;39.90;;;;;;5071466;28;20458;-51
2021/04/06 06:56:12;;;;;;;1.60;0.68;;;20.80;39.80;;;;;;5071372;28;20039;-56
2021/04/06 06:58:43;;;;;;;6.35;1.90;;;20.80;39.80;;;;;;5070382;28;20075;-50
2021/04/06 07:01:22;;;;;;;2.10;0.83;;;20.80;39.70;;;;;;5071968;28;20076;-50
2021/04/06 07:04:07;;;;;;;6.88;0.70;;;20.80;39.60;;;;;;5076116;28;20259;-51
2021/04/06 07:06:34;;;;;;;2.10;0.77;;;20.80;39.50;;;;;;5070778;28;20036;-56
2021/04/06 07:09:01;;;;;;;4.20;1.17;;;20.80;39.50;;;;;;5071777;28;20385;-54
2021/04/06 07:11:30;;;;;;;4.30;0.60;;;20.80;39.40;;;;;;5070902;28;20047;-53
2021/04/06 07:13:56;;;;;;;3.95;0.75;;;20.80;39.40;;;;;;5071204;28;20029;-55
2021/04/06 07:16:22;;;;;;;2.35;0.85;;;20.80;39.30;;;;;;5074634;28;20566;-56
2021/04/06 07:18:49;;;;;;;3.13;0.90;;;20.80;39.30;;;;;;5080949;28;20045;-54
2021/04/06 07:21:17;;;;;;;5.50;2.05;;;20.80;39.30;;;;;;5071627;28;20028;-51
2021/04/06 07:23:49;;;;;;;4.80;0.75;;;20.80;39.20;;;;;;5070427;28;20166;-53
2021/04/06 07:26:17;;;;;;;2.22;0.88;;;20.80;39.10;;;;;;5071440;28;20036;-55
2021/04/06 07:28:44;;;;;;;1.58;0.70;;;20.80;39.10;;;;;;5070309;28;20603;-54
2021/04/06 07:31:11;;;;;;;3.38;0.90;;;20.80;39.10;;;;;;5071406;28;20029;-52
2021/04/06 07:33:39;;;;;;;3.58;1.05;;;20.80;39.00;;;;;;5084090;28;20036;-50
2021/04/06 07:36:18;;;;;;;2.97;0.73;;;20.80;39.00;;;;;;5091730;28;20089;-52
2021/04/06 07:38:47;;;;;;;5.43;0.80;;;20.80;38.90;;;;;;5090777;28;20521;-51
2021/04/06 07:41:14;;;;;;;1.30;0.60;;;20.80;38.90;;;;;;5095601;28;20442;-52
2021/04/06 07:43:41;;;;;;;2.13;0.80;;;20.80;38.80;;;;;;5080512;28;20488;-51
2021/04/06 07:46:07;;;;;;;3.00;0.80;;;20.80;38.90;;;;;;5080997;28;20458;-54
2021/04/06 07:48:43;;;;;;;4.82;1.00;;;20.80;38.80;;;;;;5094224;28;20059;-49
2021/04/06 07:51:17;;;;;;;2.47;1.05;;;20.70;38.70;;;;;;5095655;28;20384;-50
2021/04/06 07:53:56;;;;;;;3.08;0.80;;;20.70;38.60;;;;;;5094550;28;20035;-54
2021/04/06 07:56:45;;;;;;;1.60;0.70;;;20.70;38.60;;;;;;5094783;28;20134;-51
2021/04/06 07:59:33;;;;;;;2.83;0.77;;;20.80;38.60;;;;;;5095024;28;20044;-52
2021/04/06 08:02:00;;;;;;;2.85;0.80;;;20.80;38.60;;;;;;5094908;28;20031;-55
2021/04/06 08:04:49;;;;;;;1.77;0.88;;;20.80;38.60;;;;;;5094483;28;20024;-55
2021/04/06 08:07:21;;;;;;;1.90;0.65;;;20.70;38.50;;;;;;5095307;28;20036;-49
2021/04/06 08:09:51;;;;;;;1.92;0.57;;;20.80;38.60;;;;;;5094220;28;20023;-51
2021/04/06 08:12:28;;;;;;;3.08;0.80;;;20.70;38.50;;;;;;5094666;28;20038;-52
2021/04/06 08:15:10;;;;;;;2.33;0.77;;;20.80;38.40;;;;;;5095084;28;20028;-53
2021/04/06 08:17:46;;;;;;;;;;;20.80;38.40;;;;;;5094174;28;20059;-52
2021/04/06 08:20:20;;;;;;;3.30;0.80;;;20.70;38.40;;;;;;5094621;28;19907;-50
2021/04/06 08:22:55;;;;;;;3.13;0.90;;;20.80;38.50;;;;;;5093820;28;20250;-53
2021/04/06 08:25:21;;;;;;;3.35;0.95;;;20.80;38.30;;;;;;5094694;28;20078;-54
2021/04/06 08:27:48;;;;;;;2.13;0.73;;;20.80;38.30;;;;;;5093462;28;20028;-53
2021/04/06 08:30:19;;;;;;;1.38;0.80;;;20.70;38.30;;;;;;5093441;28;20381;-53
2021/04/06 08:33:07;;;;;;;3.33;1.00;;;20.80;38.30;;;;;;5093315;28;20024;-51
2021/04/06 08:35:48;;;;;;;1.17;0.65;;;20.80;38.30;;;;;;5080468;28;20481;-52
2021/04/06 08:38:23;;;;;;;1.35;0.60;;;20.80;38.30;;;;;;5093067;28;20473;-50
2021/04/06 08:40:52;;;;;;;2.08;0.73;;;20.70;38.10;;;;;;5093565;28;20035;-53
2021/04/06 08:43:21;;;;;;;3.97;1.40;;;20.80;38.10;;;;;;5084157;28;20075;-50
2021/04/06 08:45:57;;;;;;;1.65;0.50;;;20.80;38.20;;;;;;5076438;28;20092;-51
2021/04/06 08:51:29;;;;;;;1.75;0.63;;;20.80;38.10;;;;;;5093923;28;20043;-49
2021/04/06 08:53:58;;;;;;;1.35;0.65;;;20.70;38.10;;;;;;5094469;28;20023;-52
2021/04/06 08:56:33;;;;;;;2.97;0.90;;;20.80;38.10;;;;;;5094201;28;20107;-51
2021/04/06 08:59:14;;;;;;;1.67;0.77;;;20.80;38.10;;;;;;5094100;28;20055;-52
2021/04/06 09:01:52;;;;;;;2.95;0.95;;;20.80;38.10;;;;;;5093025;28;20047;-49
2021/04/06 09:04:25;;;;;;;2.30;0.70;;;20.80;38.10;;;;;;5093820;28;20024;-51
2021/04/06 09:06:52;;;;;;;2.17;0.80;;;20.80;38.10;;;;;;5092905;28;20095;-50
2021/04/06 09:09:29;;;;;;;3.63;0.70;;;20.80;38.10;;;;;;5093862;28;20107;-52
2021/04/06 09:11:57;;;;;;;1.67;0.77;;;20.80;38.10;;;;;;5093521;28;20097;-52
2021/04/06 09:14:24;;;;;;;6.95;1.60;;;20.80;38.10;;;;;;5074149;28;20057;-53
2021/04/06 09:16:52;;;;;;;0.93;0.70;;;20.80;38.10;;;;;;5072501;28;20280;-52
2021/04/06 09:19:19;;;;;;;1.58;0.60;;;20.80;38.10;;;;;;5073163;28;20034;-53
2021/04/06 09:21:56;;;;;;;1.88;0.70;;;20.80;38.20;;;;;;5072476;28;20078;-48
2021/04/06 09:24:24;;;;;;;1.70;0.70;;;20.80;38.20;;;;;;5073310;28;20032;-53
2021/04/06 09:26:52;;;;;;;1.63;0.70;;;20.80;38.20;;;;;;5072444;28;20029;-55
2021/04/06 09:29:25;;;;;;;4.30;0.70;;;20.80;38.20;;;;;;5073125;28;20492;-54
2021/04/06 09:31:56;;;;;;;3.90;0.80;;;20.80;38.20;;;;;;5072764;28;20044;-53
2021/04/06 09:34:31;;;;;;;2.38;1.13;;;20.80;38.20;;;;;;5092748;28;20020;-51
2021/04/06 09:36:58;;;;;;;1.58;0.70;;;20.80;38.20;;;;;;5093046;28;20036;-51
2021/04/06 09:39:24;;;;;;;3.15;0.70;;;20.80;38.20;;;;;;5093017;28;20020;-52
2021/04/06 09:41:51;;;;;;;2.80;1.13;;;20.80;38.10;;;;;;5092382;28;20664;-49
2021/04/06 09:44:23;;;;;;;4.53;0.80;;;20.80;38.20;;;;;;5074081;28;20366;-51
2021/04/06 09:46:54;;;;;;;2.22;0.60;;;20.80;38.20;;;;;;5084103;28;20039;-52
2021/04/06 09:49:21;;;;;;;3.00;0.70;;;20.80;38.20;;;;;;5093022;28;20389;-48
2021/04/06 09:51:52;;;;;;;2.13;0.82;;;20.80;38.20;;;;;;5092311;28;20024;-51
2021/04/06 09:54:35;;;;;;;0.73;0.60;;;20.80;38.20;;;;;;5091913;28;20358;-53
2021/04/06 09:57:11;;;;;;;3.63;1.10;;;20.80;38.20;;;;;;5092692;28;20060;-55
2021/04/06 09:59:38;;;;;;;2.72;0.68;;;20.80;38.10;;;;;;5092130;28;20029;-53
2021/04/06 10:02:05;;;;;;;1.48;0.70;;;20.80;38.10;;;;;;5091601;28;20036;-53
2021/04/06 10:04:42;;;;;;;3.15;0.80;;;20.80;38.10;;;;;;5091171;28;20392;-54
2021/04/06 10:07:19;;;;;;;2.78;0.75;;;20.80;38.10;;;;;;5089407;28;20388;-56
2021/04/06 10:10:08;;;;;;;2.83;1.10;;;20.80;38.10;;;;;;5091922;28;20024;-52
2021/04/06 10:12:34;;;;;;;1.80;0.70;;;20.80;38.10;;;;;;5087158;28;20111;-56
2021/04/06 10:15:00;;;;;;;2.55;0.98;;;20.80;38.10;;;;;;5072066;28;20506;-50
2021/04/06 10:17:38;;;;;;;2.35;0.55;;;20.80;38.00;;;;;;5071974;28;20028;-53
2021/04/06 10:20:10;;;;;;;1.83;0.90;;;20.80;38.10;;;;;;5072083;28;20052;-52
2021/04/06 10:22:57;;;;;;;1.40;0.70;;;20.80;38.10;;;;;;5070896;28;20430;-51
2021/04/06 10:25:26;;;;;;;2.38;0.65;;;20.90;38.00;;;;;;5072272;28;20035;-52
2021/04/06 10:27:55;;;;;;;1.33;0.50;;;20.80;38.00;;;;;;5070494;28;20640;-52
2021/04/06 10:30:27;;;;;;;2.30;0.60;;;20.80;37.90;;;;;;5072444;28;20082;-53
2021/04/06 10:33:08;;;;;;;5.78;1.08;;;20.80;38.00;;;;;;5078895;28;20083;-51
2021/04/06 10:35:46;;;;;;;1.00;0.50;;;20.80;37.90;;;;;;5091653;28;20020;-50
2021/04/06 10:38:18;;;;;;;1.58;0.60;;;20.80;37.90;;;;;;5092404;28;20114;-48
2021/04/06 10:40:45;;;;;;;1.67;0.43;;;20.80;37.90;;;;;;5091024;28;20032;-55
2021/04/06 10:43:13;;;;;;;3.35;0.80;;;20.80;37.90;;;;;;5082390;28;20115;-50
2021/04/06 10:46:00;;;;;;;1.67;0.70;;;20.80;37.90;;;;;;5073569;28;20032;-49
2021/04/06 10:48:29;;;;;;;1.38;0.50;;;20.80;37.80;;;;;;5091757;28;20434;-50
2021/04/06 10:51:06;;;;;;;2.25;0.65;;;20.80;37.80;;;;;;5091436;28;20028;-53
2021/04/06 10:53:37;;;;;;;1.20;0.47;;;20.80;37.80;;;;;;5076072;28;20044;-56
2021/04/06 10:56:03;;;;;;;2.30;0.70;;;20.80;37.90;;;;;;5071927;28;20361;-51
2021/04/06 10:58:33;;;;;;;2.88;0.65;;;20.80;37.80;;;;;;5071410;28;20057;-48
2021/04/06 11:01:11;;;;;;;1.30;0.57;;;20.80;37.90;;;;;;5071957;28;20028;-54
2021/04/06 11:03:49;;;;;;;1.35;0.70;;;20.90;37.90;;;;;;5084193;28;20485;-50
2021/04/06 11:06:34;;;;;;;1.20;0.60;;;20.90;37.90;;;;;;5092141;28;20020;-55
2021/04/06 11:09:12;;;;;;;1.77;0.80;;;20.80;37.90;;;;;;5092178;28;20115;-53
2021/04/06 11:11:39;;;;;;;1.40;0.60;;;20.80;37.80;;;;;;5091521;28;20024;-52
2021/04/06 11:14:07;;;;;;;1.40;0.60;;;20.80;37.80;;;;;;5077514;28;20029;-51
2021/04/06 11:16:34;;;;;;;1.65;0.70;;;20.90;38.00;;;;;;5074976;28;20032;-55
2021/04/06 11:19:08;;;;;;;1.95;0.55;;;20.90;37.90;;;;;;5075787;28;20390;-50
2021/04/06 11:21:45;;;;;;;2.20;0.70;;;20.90;37.90;;;;;;5074665;28;20454;-54
2021/04/06 11:24:12;;;;;;;2.47;0.77;;;20.80;37.90;;;;;;5076176;28;20056;-53
2021/04/06 11:26:38;;;;;;;0.85;0.52;;;20.80;37.80;;;;;;5074774;28;20040;-50
2021/04/06 11:29:08;;;;;;;1.77;1.00;;;20.90;37.90;;;;;;5074274;28;20028;-53
2021/04/06 11:31:35;;;;;;;2.85;0.55;;;20.90;37.90;;;;;;5074688;28;20033;-54
2021/04/06 11:34:01;;;;;;;1.58;0.70;;;20.90;37.80;;;;;;5092724;28;20034;-50
2021/04/06 11:36:27;;;;;;;0.93;0.73;;;20.90;37.80;;;;;;5097205;28;20024;-53
2021/04/06 11:38:52;;;;;;;1.65;0.50;;;20.90;37.90;;;;;;5087177;28;20031;-53
2021/04/06 11:41:19;;;;;;;2.08;1.00;;;20.90;37.90;;;;;;5075264;28;20044;-51
2021/04/06 11:43:46;;;;;;;1.35;0.50;;;20.90;37.70;;;;;;5090609;28;20423;-55
2021/04/06 11:46:13;;;;;;;3.55;0.70;;;20.90;37.70;;;;;;5089011;28;20070;-52
2021/04/06 11:48:39;;;;;;;1.77;0.80;;;20.90;37.70;;;;;;5074562;28;20028;-54
2021/04/06 11:51:05;;;;;;;1.38;0.65;;;20.80;37.60;;;;;;5074840;28;20390;-53
2021/04/06 11:53:30;;;;;;;2.10;0.70;;;20.80;37.60;;;;;;5074911;28;20094;-55
2021/04/06 11:55:56;;;;;;;3.70;0.60;;;20.80;37.60;;;;;;5074305;28;20064;-49
2021/04/06 11:58:22;;;;;;;1.60;0.70;;;20.80;37.50;;;;;;5074223;28;20118;-52
2021/04/06 12:00:47;;;;;;;2.65;0.75;;;20.80;37.50;;;;;;5069422;28;20034;-53
2021/04/06 12:03:13;;;;;;;1.65;0.60;;;20.80;37.50;;;;;;5088419;28;20082;-52
2021/04/06 12:05:39;;;;;;;1.10;0.52;;;20.90;37.60;;;;;;5074427;28;20031;-53
2021/04/06 12:08:05;;;;;;;1.75;0.68;;;20.80;37.50;;;;;;5073488;28;20089;-54
2021/04/06 12:10:32;;;;;;;2.30;0.75;;;20.80;37.50;;;;;;5074399;28;20504;-50
2021/04/06 12:12:59;;;;;;;1.55;0.52;;;20.90;37.60;;;;;;5074067;28;20097;-52
2021/04/06 12:15:25;;;;;;;2.95;0.65;;;20.90;37.60;;;;;;5074744;28;20154;-51
2021/04/06 12:17:51;;;;;;;1.70;0.60;;;20.90;38.00;;;;;;5073679;28;20499;-49
2021/04/06 12:20:17;;;;;;;1.13;0.57;;;20.90;37.90;;;;;;5073775;28;20036;-54
2021/04/06 12:22:43;;;;;;;1.08;0.60;;;20.90;38.00;;;;;;5086312;28;20386;-51
2021/04/06 12:25:10;;;;;;;2.40;0.70;;;20.90;37.90;;;;;;5094068;28;20024;-53
2021/04/06 12:27:35;;;;;;;1.20;0.60;;;20.90;37.90;;;;;;5094190;28;20028;-56
2021/04/06 12:30:01;;;;;;;1.40;0.55;;;20.90;38.00;;;;;;5094586;28;20492;-57
2021/04/06 12:32:27;;;;;;;1.17;0.70;;;20.90;37.90;;;;;;5085947;28;20031;-50
2021/04/06 12:34:53;;;;;;;0.88;0.57;;;21.00;38.00;;;;;;5093742;28;20024;-51
2021/04/06 12:37:20;;;;;;;1.83;0.52;;;21.00;38.00;;;;;;5084897;28;20119;-53
2021/04/06 12:39:47;;;;;;;2.05;0.80;;;21.00;37.80;;;;;;5082260;28;20041;-51
2021/04/06 12:42:14;;;;;;;1.92;1.00;;;21.00;38.00;;;;;;5074113;28;20109;-51
2021/04/06 12:44:39;;;;;;;3.55;0.60;;;21.00;38.00;;;;;;5077877;28;20035;-49
2021/04/06 12:47:05;;;;;;;2.53;0.80;;;21.00;37.90;;;;;;5092789;28;20030;-53
2021/04/06 12:49:31;;;;;;;1.30;0.60;;;21.00;37.90;;;;;;5093756;28;20423;-53
2021/04/06 12:51:56;;;;;;;1.83;0.80;;;21.00;37.80;;;;;;5092850;28;20588;-53
2021/04/06 12:54:22;;;;;;;2.28;0.80;;;21.00;37.80;;;;;;5093628;28;20072;-52
2021/04/06 12:56:47;;;;;;;1.00;0.50;;;21.00;37.70;;;;;;5092782;28;20029;-51
2021/04/06 12:59:13;;;;;;;2.03;0.68;;;21.00;37.80;;;;;;5093973;28;20358;-51
2021/04/06 13:01:39;;;;;;;1.45;0.60;;;21.00;37.80;;;;;;5093444;28;20091;-51
2021/04/06 13:04:06;;;;;;;2.25;0.85;;;21.00;37.70;;;;;;5093821;28;20028;-53